sensor_id;sensor_type;location;lat;lon;timestamp;temperature;humidity
8095;DHT22;4090;49.270;8.696;2022-09-13T00:00:10;20.20;99.90
8095;DHT22;4090;49.270;8.696;2022-09-13T00:02:52;20.20;99.90
8095;DHT22;4090;49.270;8.696;2022-09-13T00:05:34;20.20;99.90
8095;DHT22;4090;49.270;8.696;2022-09-13T00:08:16;20.20;99.90
8095;DHT22;4090;49.270;8.696;2022-09-13T00:10:58;20.10;99.90
8095;DHT22;4090;49.270;8.696;2022-09-13T00:13:41;20.10;99.90
8095;DHT22;4090;49.270;8.696;2022-09-13T00:16:26;20.10;99.90
8095;DHT22;4090;49.270;8.696;2022-09-13T00:19:08;20.00;99.90
8095;DHT22;4090;49.270;8.696;2022-09-13T00:21:50;20.10;99.90
8095;DHT22;4090;49.270;8.696;2022-09-13T00:24:32;20.10;99.90
8095;DHT22;4090;49.270;8.696;2022-09-13T00:27:14;20.10;99.90
8095;DHT22;4090;49.270;8.696;2022-09-13T00:29:58;20.00;99.90
8095;DHT22;4090;49.270;8.696;2022-09-13T00:32:40;20.00;99.90
8095;DHT22;4090;49.270;8.696;2022-09-13T00:35:22;19.90;99.90
8095;DHT22;4090;49.270;8.696;2022-09-13T00:38:04;19.90;99.90
8095;DHT22;4090;49.270;8.696;2022-09-13T00:40:46;19.90;99.90
8095;DHT22;4090;49.270;8.696;2022-09-13T00:43:41;19.90;99.90
8095;DHT22;4090;49.270;8.696;2022-09-13T00:46:31;19.90;99.90
8095;DHT22;4090;49.270;8.696;2022-09-13T00:49:17;19.80;99.90
8095;DHT22;4090;49.270;8.696;2022-09-13T00:52:05;19.80;99.90
8095;DHT22;4090;49.270;8.696;2022-09-13T00:54:51;19.80;99.90
8095;DHT22;4090;49.270;8.696;2022-09-13T00:57:35;19.70;99.90
8095;DHT22;4090;49.270;8.696;2022-09-13T01:00:19;19.70;99.90
8095;DHT22;4090;49.270;8.696;2022-09-13T01:07:08;19.70;99.90
8095;DHT22;4090;49.270;8.696;2022-09-13T01:09:51;19.60;99.90
8095;DHT22;4090;49.270;8.696;2022-09-13T01:12:37;19.50;99.90
8095;DHT22;4090;49.270;8.696;2022-09-13T01:15:23;19.50;99.90
8095;DHT22;4090;49.270;8.696;2022-09-13T01:18:06;19.50;99.90
8095;DHT22;4090;49.270;8.696;2022-09-13T01:21:20;19.50;99.90
8095;DHT22;4090;49.270;8.696;2022-09-13T01:24:37;19.50;99.90
8095;DHT22;4090;49.270;8.696;2022-09-13T01:27:36;19.50;99.90
8095;DHT22;4090;49.270;8.696;2022-09-13T01:30:22;19.50;99.90
8095;DHT22;4090;49.270;8.696;2022-09-13T01:33:32;19.50;99.90
8095;DHT22;4090;49.270;8.696;2022-09-13T01:36:42;19.50;99.90
8095;DHT22;4090;49.270;8.696;2022-09-13T01:39:41;19.50;99.90
8095;DHT22;4090;49.270;8.696;2022-09-13T01:42:40;19.50;99.90
8095;DHT22;4090;49.270;8.696;2022-09-13T01:45:32;19.50;99.90
8095;DHT22;4090;49.270;8.696;2022-09-13T01:48:22;19.50;99.90
8095;DHT22;4090;49.270;8.696;2022-09-13T01:51:09;19.50;99.90
8095;DHT22;4090;49.270;8.696;2022-09-13T01:53:59;19.50;99.90
8095;DHT22;4090;49.270;8.696;2022-09-13T01:56:55;19.50;99.90
8095;DHT22;4090;49.270;8.696;2022-09-13T01:59:46;19.50;99.90
8095;DHT22;4090;49.270;8.696;2022-09-13T02:02:33;19.50;99.90
8095;DHT22;4090;49.270;8.696;2022-09-13T02:05:21;19.40;99.90
8095;DHT22;4090;49.270;8.696;2022-09-13T02:08:06;19.40;99.90
8095;DHT22;4090;49.270;8.696;2022-09-13T02:10:52;19.40;99.90
8095;DHT22;4090;49.270;8.696;2022-09-13T02:13:39;19.40;99.90
8095;DHT22;4090;49.270;8.696;2022-09-13T02:16:27;19.40;99.90
8095;DHT22;4090;49.270;8.696;2022-09-13T02:19:14;19.40;99.90
8095;DHT22;4090;49.270;8.696;2022-09-13T02:21:59;19.40;99.90
8095;DHT22;4090;49.270;8.696;2022-09-13T02:24:44;19.30;99.90
8095;DHT22;4090;49.270;8.696;2022-09-13T02:27:31;19.30;99.90
8095;DHT22;4090;49.270;8.696;2022-09-13T02:30:14;19.20;99.90
8095;DHT22;4090;49.270;8.696;2022-09-13T02:33:02;19.20;99.90
8095;DHT22;4090;49.270;8.696;2022-09-13T02:35:50;19.10;99.90
8095;DHT22;4090;49.270;8.696;2022-09-13T02:38:39;19.10;99.90
8095;DHT22;4090;49.270;8.696;2022-09-13T02:41:31;19.10;99.90
8095;DHT22;4090;49.270;8.696;2022-09-13T02:44:18;19.10;99.90
8095;DHT22;4090;49.270;8.696;2022-09-13T02:47:13;19.00;99.90
8095;DHT22;4090;49.270;8.696;2022-09-13T02:50:10;19.00;99.90
8095;DHT22;4090;49.270;8.696;2022-09-13T02:53:03;19.00;99.90
8095;DHT22;4090;49.270;8.696;2022-09-13T02:55:51;19.00;99.90
8095;DHT22;4090;49.270;8.696;2022-09-13T02:58:41;18.90;99.90
8095;DHT22;4090;49.270;8.696;2022-09-13T03:01:25;18.90;99.90
8095;DHT22;4090;49.270;8.696;2022-09-13T03:04:07;18.90;99.90
8095;DHT22;4090;49.270;8.696;2022-09-13T03:06:49;18.90;99.90
8095;DHT22;4090;49.270;8.696;2022-09-13T03:09:32;18.90;99.90
8095;DHT22;4090;49.270;8.696;2022-09-13T03:12:37;18.80;99.90
8095;DHT22;4090;49.270;8.696;2022-09-13T03:15:26;18.80;99.90
8095;DHT22;4090;49.270;8.696;2022-09-13T03:18:19;18.80;99.90
8095;DHT22;4090;49.270;8.696;2022-09-13T03:21:17;18.70;99.90
8095;DHT22;4090;49.270;8.696;2022-09-13T03:24:08;18.70;99.90
8095;DHT22;4090;49.270;8.696;2022-09-13T03:27:05;18.70;99.90
8095;DHT22;4090;49.270;8.696;2022-09-13T03:29:54;18.70;99.90
8095;DHT22;4090;49.270;8.696;2022-09-13T03:32:43;18.70;99.90
8095;DHT22;4090;49.270;8.696;2022-09-13T03:35:32;18.60;99.90
8095;DHT22;4090;49.270;8.696;2022-09-13T03:38:18;18.60;99.90
8095;DHT22;4090;49.270;8.696;2022-09-13T03:41:04;18.60;99.90
8095;DHT22;4090;49.270;8.696;2022-09-13T03:43:52;18.60;99.90
8095;DHT22;4090;49.270;8.696;2022-09-13T03:46:38;18.60;99.90
8095;DHT22;4090;49.270;8.696;2022-09-13T03:49:23;18.50;99.90
8095;DHT22;4090;49.270;8.696;2022-09-13T03:52:06;18.50;99.90
8095;DHT22;4090;49.270;8.696;2022-09-13T03:54:48;18.50;99.90
8095;DHT22;4090;49.270;8.696;2022-09-13T03:57:30;18.50;99.90
8095;DHT22;4090;49.270;8.696;2022-09-13T04:00:14;18.40;99.90
8095;DHT22;4090;49.270;8.696;2022-09-13T04:02:57;18.40;99.90
8095;DHT22;4090;49.270;8.696;2022-09-13T04:05:39;18.40;99.90
8095;DHT22;4090;49.270;8.696;2022-09-13T04:08:21;18.40;99.90
8095;DHT22;4090;49.270;8.696;2022-09-13T04:11:03;18.40;99.90
8095;DHT22;4090;49.270;8.696;2022-09-13T04:13:45;18.50;99.90
8095;DHT22;4090;49.270;8.696;2022-09-13T04:16:28;18.50;99.90
8095;DHT22;4090;49.270;8.696;2022-09-13T04:19:10;18.40;99.90
8095;DHT22;4090;49.270;8.696;2022-09-13T04:21:53;18.40;99.90
8095;DHT22;4090;49.270;8.696;2022-09-13T04:24:35;18.40;99.90
8095;DHT22;4090;49.270;8.696;2022-09-13T04:27:18;18.40;99.90
8095;DHT22;4090;49.270;8.696;2022-09-13T04:30:00;18.40;99.90
8095;DHT22;4090;49.270;8.696;2022-09-13T04:32:43;18.40;99.90
8095;DHT22;4090;49.270;8.696;2022-09-13T04:35:25;18.40;99.90
8095;DHT22;4090;49.270;8.696;2022-09-13T04:38:08;18.30;99.90
8095;DHT22;4090;49.270;8.696;2022-09-13T04:40:54;18.40;99.90
8095;DHT22;4090;49.270;8.696;2022-09-13T04:43:36;18.30;99.90
8095;DHT22;4090;49.270;8.696;2022-09-13T04:46:17;18.30;99.90
8095;DHT22;4090;49.270;8.696;2022-09-13T04:49:01;18.30;99.90
8095;DHT22;4090;49.270;8.696;2022-09-13T04:51:43;18.20;99.90
8095;DHT22;4090;49.270;8.696;2022-09-13T04:54:25;18.20;99.90
8095;DHT22;4090;49.270;8.696;2022-09-13T04:57:07;18.20;99.90
8095;DHT22;4090;49.270;8.696;2022-09-13T04:59:49;18.20;99.90
8095;DHT22;4090;49.270;8.696;2022-09-13T05:02:30;18.20;99.90
8095;DHT22;4090;49.270;8.696;2022-09-13T05:05:14;18.20;99.90
8095;DHT22;4090;49.270;8.696;2022-09-13T05:07:55;18.20;99.90
8095;DHT22;4090;49.270;8.696;2022-09-13T05:10:37;18.20;99.90
8095;DHT22;4090;49.270;8.696;2022-09-13T05:13:19;18.20;99.90
8095;DHT22;4090;49.270;8.696;2022-09-13T05:16:04;18.10;99.90
8095;DHT22;4090;49.270;8.696;2022-09-13T05:18:46;18.20;99.90
8095;DHT22;4090;49.270;8.696;2022-09-13T05:21:29;18.10;99.90
8095;DHT22;4090;49.270;8.696;2022-09-13T05:24:11;18.20;99.90
8095;DHT22;4090;49.270;8.696;2022-09-13T05:26:53;18.20;99.90
8095;DHT22;4090;49.270;8.696;2022-09-13T05:29:35;18.20;99.90
8095;DHT22;4090;49.270;8.696;2022-09-13T05:32:17;18.20;99.90
8095;DHT22;4090;49.270;8.696;2022-09-13T05:34:58;18.20;99.90
8095;DHT22;4090;49.270;8.696;2022-09-13T05:37:41;18.20;99.90
8095;DHT22;4090;49.270;8.696;2022-09-13T05:40:23;18.20;99.90
8095;DHT22;4090;49.270;8.696;2022-09-13T05:43:06;18.20;99.90
8095;DHT22;4090;49.270;8.696;2022-09-13T05:45:47;18.10;99.90
8095;DHT22;4090;49.270;8.696;2022-09-13T05:48:30;18.20;99.90
8095;DHT22;4090;49.270;8.696;2022-09-13T05:51:14;18.10;99.90
8095;DHT22;4090;49.270;8.696;2022-09-13T05:53:57;18.10;99.90
8095;DHT22;4090;49.270;8.696;2022-09-13T05:56:39;18.20;99.90
8095;DHT22;4090;49.270;8.696;2022-09-13T05:59:21;18.20;99.90
8095;DHT22;4090;49.270;8.696;2022-09-13T06:02:03;18.20;99.90
8095;DHT22;4090;49.270;8.696;2022-09-13T06:04:45;18.10;99.90
8095;DHT22;4090;49.270;8.696;2022-09-13T06:07:26;18.20;99.90
8095;DHT22;4090;49.270;8.696;2022-09-13T06:10:10;18.10;99.90
8095;DHT22;4090;49.270;8.696;2022-09-13T06:12:52;18.10;99.90
8095;DHT22;4090;49.270;8.696;2022-09-13T06:15:35;18.20;99.90
8095;DHT22;4090;49.270;8.696;2022-09-13T06:18:16;18.20;99.90
8095;DHT22;4090;49.270;8.696;2022-09-13T06:21:02;18.20;99.90
8095;DHT22;4090;49.270;8.696;2022-09-13T06:23:45;18.10;99.90
8095;DHT22;4090;49.270;8.696;2022-09-13T06:26:28;18.10;99.90
8095;DHT22;4090;49.270;8.696;2022-09-13T06:29:11;18.20;99.90
8095;DHT22;4090;49.270;8.696;2022-09-13T06:31:53;18.20;99.90
8095;DHT22;4090;49.270;8.696;2022-09-13T06:34:35;18.20;99.90
8095;DHT22;4090;49.270;8.696;2022-09-13T06:37:16;18.20;99.90
8095;DHT22;4090;49.270;8.696;2022-09-13T06:39:59;18.20;99.90
8095;DHT22;4090;49.270;8.696;2022-09-13T06:42:42;18.20;99.90
8095;DHT22;4090;49.270;8.696;2022-09-13T06:45:24;18.20;99.90
8095;DHT22;4090;49.270;8.696;2022-09-13T06:48:06;18.20;99.90
8095;DHT22;4090;49.270;8.696;2022-09-13T06:50:48;18.30;99.90
8095;DHT22;4090;49.270;8.696;2022-09-13T06:53:30;18.30;99.90
8095;DHT22;4090;49.270;8.696;2022-09-13T06:56:15;18.20;99.90
8095;DHT22;4090;49.270;8.696;2022-09-13T06:59:00;18.20;99.90
8095;DHT22;4090;49.270;8.696;2022-09-13T07:01:44;18.30;99.90
8095;DHT22;4090;49.270;8.696;2022-09-13T07:04:26;18.30;99.90
8095;DHT22;4090;49.270;8.696;2022-09-13T07:07:11;18.40;99.90
8095;DHT22;4090;49.270;8.696;2022-09-13T07:09:52;18.40;99.90
8095;DHT22;4090;49.270;8.696;2022-09-13T07:12:34;18.40;99.90
8095;DHT22;4090;49.270;8.696;2022-09-13T07:15:17;18.50;99.90
8095;DHT22;4090;49.270;8.696;2022-09-13T07:17:59;18.50;99.90
8095;DHT22;4090;49.270;8.696;2022-09-13T07:20:41;18.60;99.90
8095;DHT22;4090;49.270;8.696;2022-09-13T07:23:23;18.60;99.90
8095;DHT22;4090;49.270;8.696;2022-09-13T07:26:06;18.60;99.90
8095;DHT22;4090;49.270;8.696;2022-09-13T07:28:50;18.70;99.90
8095;DHT22;4090;49.270;8.696;2022-09-13T07:31:35;18.70;99.90
8095;DHT22;4090;49.270;8.696;2022-09-13T07:34:18;18.70;99.90
8095;DHT22;4090;49.270;8.696;2022-09-13T07:37:00;18.80;99.90
8095;DHT22;4090;49.270;8.696;2022-09-13T07:39:42;18.80;99.90
8095;DHT22;4090;49.270;8.696;2022-09-13T07:42:24;18.80;99.90
8095;DHT22;4090;49.270;8.696;2022-09-13T07:45:07;18.80;99.90
8095;DHT22;4090;49.270;8.696;2022-09-13T07:47:51;18.80;99.90
8095;DHT22;4090;49.270;8.696;2022-09-13T07:50:33;18.90;99.90
8095;DHT22;4090;49.270;8.696;2022-09-13T07:53:15;18.90;99.90
8095;DHT22;4090;49.270;8.696;2022-09-13T07:56:01;18.90;99.90
8095;DHT22;4090;49.270;8.696;2022-09-13T07:58:45;19.00;99.90
8095;DHT22;4090;49.270;8.696;2022-09-13T08:01:28;19.00;99.90
8095;DHT22;4090;49.270;8.696;2022-09-13T08:04:13;19.00;99.90
8095;DHT22;4090;49.270;8.696;2022-09-13T08:06:56;19.00;99.90
8095;DHT22;4090;49.270;8.696;2022-09-13T08:09:38;19.10;99.90
8095;DHT22;4090;49.270;8.696;2022-09-13T08:12:20;19.10;99.90
8095;DHT22;4090;49.270;8.696;2022-09-13T08:15:02;19.10;99.90
8095;DHT22;4090;49.270;8.696;2022-09-13T08:17:45;19.20;99.90
8095;DHT22;4090;49.270;8.696;2022-09-13T08:20:28;19.20;99.90
8095;DHT22;4090;49.270;8.696;2022-09-13T08:23:11;19.30;99.90
8095;DHT22;4090;49.270;8.696;2022-09-13T08:25:53;19.30;99.90
8095;DHT22;4090;49.270;8.696;2022-09-13T08:28:36;19.30;99.90
8095;DHT22;4090;49.270;8.696;2022-09-13T08:31:19;19.30;99.90
8095;DHT22;4090;49.270;8.696;2022-09-13T08:34:02;19.40;99.90
8095;DHT22;4090;49.270;8.696;2022-09-13T08:36:46;19.40;99.90
8095;DHT22;4090;49.270;8.696;2022-09-13T08:39:27;19.50;99.90
8095;DHT22;4090;49.270;8.696;2022-09-13T08:42:21;19.50;99.90
8095;DHT22;4090;49.270;8.696;2022-09-13T08:45:07;19.50;99.90
8095;DHT22;4090;49.270;8.696;2022-09-13T08:47:53;19.60;99.90
8095;DHT22;4090;49.270;8.696;2022-09-13T08:50:37;19.60;99.90
8095;DHT22;4090;49.270;8.696;2022-09-13T08:53:24;19.60;99.90
8095;DHT22;4090;49.270;8.696;2022-09-13T08:56:09;19.70;99.90
8095;DHT22;4090;49.270;8.696;2022-09-13T08:59:05;19.70;99.90
8095;DHT22;4090;49.270;8.696;2022-09-13T09:02:01;19.80;99.90
8095;DHT22;4090;49.270;8.696;2022-09-13T09:04:51;19.80;99.90
8095;DHT22;4090;49.270;8.696;2022-09-13T09:07:40;19.90;99.90
8095;DHT22;4090;49.270;8.696;2022-09-13T09:10:27;19.90;99.90
8095;DHT22;4090;49.270;8.696;2022-09-13T09:13:16;20.00;99.90
8095;DHT22;4090;49.270;8.696;2022-09-13T09:16:09;20.00;99.90
8095;DHT22;4090;49.270;8.696;2022-09-13T09:18:53;20.10;99.90
8095;DHT22;4090;49.270;8.696;2022-09-13T09:21:37;20.20;99.90
8095;DHT22;4090;49.270;8.696;2022-09-13T09:24:22;20.20;99.90
8095;DHT22;4090;49.270;8.696;2022-09-13T09:27:12;20.30;99.90
8095;DHT22;4090;49.270;8.696;2022-09-13T09:29:55;20.40;99.90
8095;DHT22;4090;49.270;8.696;2022-09-13T09:32:51;20.50;99.90
8095;DHT22;4090;49.270;8.696;2022-09-13T09:35:47;20.50;99.90
8095;DHT22;4090;49.270;8.696;2022-09-13T09:38:38;20.60;99.90
8095;DHT22;4090;49.270;8.696;2022-09-13T09:41:25;20.70;99.90
8095;DHT22;4090;49.270;8.696;2022-09-13T09:44:16;20.70;99.90
8095;DHT22;4090;49.270;8.696;2022-09-13T09:47:01;20.80;99.90
8095;DHT22;4090;49.270;8.696;2022-09-13T09:49:46;20.90;99.90
8095;DHT22;4090;49.270;8.696;2022-09-13T09:52:51;21.00;99.90
8095;DHT22;4090;49.270;8.696;2022-09-13T09:55:41;21.10;99.90
8095;DHT22;4090;49.270;8.696;2022-09-13T09:58:37;21.20;99.90
8095;DHT22;4090;49.270;8.696;2022-09-13T10:01:23;21.20;99.90
8095;DHT22;4090;49.270;8.696;2022-09-13T10:04:19;21.40;99.90
8095;DHT22;4090;49.270;8.696;2022-09-13T10:07:23;21.40;99.90
8095;DHT22;4090;49.270;8.696;2022-09-13T10:10:19;21.50;99.90
8095;DHT22;4090;49.270;8.696;2022-09-13T10:13:04;21.60;99.90
8095;DHT22;4090;49.270;8.696;2022-09-13T10:15:55;21.70;99.90
8095;DHT22;4090;49.270;8.696;2022-09-13T10:18:39;21.80;99.90
8095;DHT22;4090;49.270;8.696;2022-09-13T10:21:23;21.90;99.90
8095;DHT22;4090;49.270;8.696;2022-09-13T10:24:15;22.00;99.90
8095;DHT22;4090;49.270;8.696;2022-09-13T10:26:59;22.00;99.90
8095;DHT22;4090;49.270;8.696;2022-09-13T10:29:46;22.20;99.90
8095;DHT22;4090;49.270;8.696;2022-09-13T10:32:30;22.30;99.90
8095;DHT22;4090;49.270;8.696;2022-09-13T10:35:17;22.30;99.90
8095;DHT22;4090;49.270;8.696;2022-09-13T10:37:59;22.30;99.90
8095;DHT22;4090;49.270;8.696;2022-09-13T10:40:47;22.40;99.90
8095;DHT22;4090;49.270;8.696;2022-09-13T10:43:30;22.30;99.90
8095;DHT22;4090;49.270;8.696;2022-09-13T10:46:14;22.40;99.90
8095;DHT22;4090;49.270;8.696;2022-09-13T10:49:02;22.30;99.90
8095;DHT22;4090;49.270;8.696;2022-09-13T10:51:45;22.30;99.90
8095;DHT22;4090;49.270;8.696;2022-09-13T10:54:27;22.40;99.90
8095;DHT22;4090;49.270;8.696;2022-09-13T10:57:30;22.40;99.90
8095;DHT22;4090;49.270;8.696;2022-09-13T11:00:15;22.40;99.90
8095;DHT22;4090;49.270;8.696;2022-09-13T11:03:12;22.40;99.90
8095;DHT22;4090;49.270;8.696;2022-09-13T11:06:05;22.50;99.90
8095;DHT22;4090;49.270;8.696;2022-09-13T11:08:55;22.60;99.90
8095;DHT22;4090;49.270;8.696;2022-09-13T11:11:44;22.60;99.90
8095;DHT22;4090;49.270;8.696;2022-09-13T11:14:37;22.60;99.90
8095;DHT22;4090;49.270;8.696;2022-09-13T11:17:32;22.70;99.90
8095;DHT22;4090;49.270;8.696;2022-09-13T11:20:27;22.70;99.90
8095;DHT22;4090;49.270;8.696;2022-09-13T11:23:32;22.80;99.90
8095;DHT22;4090;49.270;8.696;2022-09-13T11:26:37;22.80;99.90
8095;DHT22;4090;49.270;8.696;2022-09-13T11:29:36;23.00;99.90
8095;DHT22;4090;49.270;8.696;2022-09-13T11:32:35;23.10;99.90
8095;DHT22;4090;49.270;8.696;2022-09-13T11:35:40;23.10;99.90
8095;DHT22;4090;49.270;8.696;2022-09-13T11:38:34;23.20;99.90
8095;DHT22;4090;49.270;8.696;2022-09-13T11:41:25;23.20;99.90
8095;DHT22;4090;49.270;8.696;2022-09-13T11:44:40;23.20;99.90
8095;DHT22;4090;49.270;8.696;2022-09-13T11:47:33;23.20;99.90
8095;DHT22;4090;49.270;8.696;2022-09-13T11:50:33;23.20;99.90
8095;DHT22;4090;49.270;8.696;2022-09-13T11:53:37;23.20;99.90
8095;DHT22;4090;49.270;8.696;2022-09-13T11:56:23;23.30;99.90
8095;DHT22;4090;49.270;8.696;2022-09-13T11:59:15;23.30;99.90
8095;DHT22;4090;49.270;8.696;2022-09-13T12:02:04;23.40;99.90
8095;DHT22;4090;49.270;8.696;2022-09-13T12:04:55;23.40;99.90
8095;DHT22;4090;49.270;8.696;2022-09-13T12:07:42;23.60;99.90
8095;DHT22;4090;49.270;8.696;2022-09-13T12:10:29;23.70;99.90
8095;DHT22;4090;49.270;8.696;2022-09-13T12:13:17;23.80;99.90
8095;DHT22;4090;49.270;8.696;2022-09-13T12:16:05;23.90;99.90
8095;DHT22;4090;49.270;8.696;2022-09-13T12:18:50;24.00;99.90
8095;DHT22;4090;49.270;8.696;2022-09-13T12:21:36;24.10;99.90
8095;DHT22;4090;49.270;8.696;2022-09-13T12:24:21;24.20;99.90
8095;DHT22;4090;49.270;8.696;2022-09-13T12:27:12;24.30;99.90
8095;DHT22;4090;49.270;8.696;2022-09-13T12:30:05;24.50;99.90
8095;DHT22;4090;49.270;8.696;2022-09-13T12:32:49;24.70;99.90
8095;DHT22;4090;49.270;8.696;2022-09-13T12:35:36;24.80;99.90
8095;DHT22;4090;49.270;8.696;2022-09-13T12:38:44;24.90;99.90
8095;DHT22;4090;49.270;8.696;2022-09-13T12:41:40;25.00;99.90
8095;DHT22;4090;49.270;8.696;2022-09-13T12:44:53;25.10;99.90
8095;DHT22;4090;49.270;8.696;2022-09-13T12:48:11;25.10;99.90
8095;DHT22;4090;49.270;8.696;2022-09-13T12:51:07;25.10;99.90
8095;DHT22;4090;49.270;8.696;2022-09-13T12:54:28;25.20;99.90
8095;DHT22;4090;49.270;8.696;2022-09-13T12:57:23;25.20;99.90
8095;DHT22;4090;49.270;8.696;2022-09-13T13:00:29;25.20;99.90
8095;DHT22;4090;49.270;8.696;2022-09-13T13:03:17;25.20;99.90
8095;DHT22;4090;49.270;8.696;2022-09-13T13:06:07;25.20;99.90
8095;DHT22;4090;49.270;8.696;2022-09-13T13:08:53;25.20;99.90
8095;DHT22;4090;49.270;8.696;2022-09-13T13:11:45;25.20;99.90
8095;DHT22;4090;49.270;8.696;2022-09-13T13:14:41;25.20;99.90
8095;DHT22;4090;49.270;8.696;2022-09-13T13:17:42;25.20;99.90
8095;DHT22;4090;49.270;8.696;2022-09-13T13:20:45;25.20;99.90
8095;DHT22;4090;49.270;8.696;2022-09-13T13:23:29;25.20;99.90
8095;DHT22;4090;49.270;8.696;2022-09-13T13:26:12;25.30;99.90
8095;DHT22;4090;49.270;8.696;2022-09-13T13:29:17;25.40;99.90
8095;DHT22;4090;49.270;8.696;2022-09-13T13:32:08;25.50;99.90
8095;DHT22;4090;49.270;8.696;2022-09-13T13:34:51;25.60;99.90
8095;DHT22;4090;49.270;8.696;2022-09-13T13:37:35;25.70;99.90
8095;DHT22;4090;49.270;8.696;2022-09-13T13:40:26;25.80;99.90
8095;DHT22;4090;49.270;8.696;2022-09-13T13:43:32;26.00;99.90
8095;DHT22;4090;49.270;8.696;2022-09-13T13:46:33;26.10;99.90
8095;DHT22;4090;49.270;8.696;2022-09-13T13:49:42;26.30;99.90
8095;DHT22;4090;49.270;8.696;2022-09-13T13:52:35;26.40;99.90
8095;DHT22;4090;49.270;8.696;2022-09-13T13:55:30;26.40;99.90
8095;DHT22;4090;49.270;8.696;2022-09-13T13:58:29;26.50;99.90
8095;DHT22;4090;49.270;8.696;2022-09-13T14:01:17;26.50;99.90
8095;DHT22;4090;49.270;8.696;2022-09-13T14:07:29;26.60;99.90
8095;DHT22;4090;49.270;8.696;2022-09-13T14:10:20;26.70;99.90
8095;DHT22;4090;49.270;8.696;2022-09-13T14:13:25;26.70;99.90
8095;DHT22;4090;49.270;8.696;2022-09-13T14:16:20;26.80;99.90
8095;DHT22;4090;49.270;8.696;2022-09-13T14:19:19;26.80;99.90
8095;DHT22;4090;49.270;8.696;2022-09-13T14:22:14;26.80;99.90
8095;DHT22;4090;49.270;8.696;2022-09-13T14:25:11;26.90;99.90
8095;DHT22;4090;49.270;8.696;2022-09-13T14:27:55;26.90;99.90
8095;DHT22;4090;49.270;8.696;2022-09-13T14:30:43;26.90;99.90
8095;DHT22;4090;49.270;8.696;2022-09-13T14:33:27;26.90;99.90
8095;DHT22;4090;49.270;8.696;2022-09-13T14:36:18;26.90;99.90
8095;DHT22;4090;49.270;8.696;2022-09-13T14:39:01;27.00;99.90
8095;DHT22;4090;49.270;8.696;2022-09-13T14:41:44;26.90;99.90
8095;DHT22;4090;49.270;8.696;2022-09-13T14:44:27;26.90;99.90
8095;DHT22;4090;49.270;8.696;2022-09-13T14:47:15;26.90;99.90
8095;DHT22;4090;49.270;8.696;2022-09-13T14:50:02;26.90;99.90
8095;DHT22;4090;49.270;8.696;2022-09-13T14:52:48;26.90;99.90
8095;DHT22;4090;49.270;8.696;2022-09-13T14:55:34;26.90;99.90
8095;DHT22;4090;49.270;8.696;2022-09-13T14:58:21;26.90;99.90
8095;DHT22;4090;49.270;8.696;2022-09-13T15:01:08;26.90;99.90
8095;DHT22;4090;49.270;8.696;2022-09-13T15:03:51;26.90;99.90
8095;DHT22;4090;49.270;8.696;2022-09-13T15:06:38;26.90;99.90
8095;DHT22;4090;49.270;8.696;2022-09-13T15:09:26;26.80;99.90
8095;DHT22;4090;49.270;8.696;2022-09-13T15:12:21;26.80;99.90
8095;DHT22;4090;49.270;8.696;2022-09-13T15:15:25;26.90;99.90
8095;DHT22;4090;49.270;8.696;2022-09-13T15:18:23;26.80;99.90
8095;DHT22;4090;49.270;8.696;2022-09-13T15:21:13;26.80;99.90
8095;DHT22;4090;49.270;8.696;2022-09-13T15:23:56;26.80;99.90
8095;DHT22;4090;49.270;8.696;2022-09-13T15:26:38;26.70;99.90
8095;DHT22;4090;49.270;8.696;2022-09-13T15:29:20;26.70;99.90
8095;DHT22;4090;49.270;8.696;2022-09-13T15:32:04;26.60;99.90
8095;DHT22;4090;49.270;8.696;2022-09-13T15:34:48;26.60;99.90
8095;DHT22;4090;49.270;8.696;2022-09-13T15:37:33;26.60;99.90
8095;DHT22;4090;49.270;8.696;2022-09-13T15:40:20;26.50;99.90
8095;DHT22;4090;49.270;8.696;2022-09-13T15:43:02;26.50;99.90
8095;DHT22;4090;49.270;8.696;2022-09-13T15:45:44;26.50;99.90
8095;DHT22;4090;49.270;8.696;2022-09-13T15:48:29;26.50;99.90
8095;DHT22;4090;49.270;8.696;2022-09-13T15:51:13;26.40;99.90
8095;DHT22;4090;49.270;8.696;2022-09-13T15:53:55;26.40;99.90
8095;DHT22;4090;49.270;8.696;2022-09-13T15:56:40;26.30;99.90
8095;DHT22;4090;49.270;8.696;2022-09-13T15:59:23;26.30;99.90
8095;DHT22;4090;49.270;8.696;2022-09-13T16:02:17;26.20;99.90
8095;DHT22;4090;49.270;8.696;2022-09-13T16:05:00;26.20;99.90
8095;DHT22;4090;49.270;8.696;2022-09-13T16:07:42;26.20;99.90
8095;DHT22;4090;49.270;8.696;2022-09-13T16:10:24;26.10;99.90
8095;DHT22;4090;49.270;8.696;2022-09-13T16:13:06;26.10;99.90
8095;DHT22;4090;49.270;8.696;2022-09-13T16:15:48;26.00;99.90
8095;DHT22;4090;49.270;8.696;2022-09-13T16:18:30;26.00;99.90
8095;DHT22;4090;49.270;8.696;2022-09-13T16:21:13;26.00;99.90
8095;DHT22;4090;49.270;8.696;2022-09-13T16:23:55;25.90;99.90
8095;DHT22;4090;49.270;8.696;2022-09-13T16:26:37;25.90;99.90
8095;DHT22;4090;49.270;8.696;2022-09-13T16:29:19;25.80;99.90
8095;DHT22;4090;49.270;8.696;2022-09-13T16:32:01;25.80;99.90
8095;DHT22;4090;49.270;8.696;2022-09-13T16:34:43;25.80;99.90
8095;DHT22;4090;49.270;8.696;2022-09-13T16:37:27;25.70;99.90
8095;DHT22;4090;49.270;8.696;2022-09-13T16:40:10;25.70;99.90
8095;DHT22;4090;49.270;8.696;2022-09-13T16:42:52;25.70;99.90
8095;DHT22;4090;49.270;8.696;2022-09-13T16:45:36;25.60;99.90
8095;DHT22;4090;49.270;8.696;2022-09-13T16:48:19;25.60;99.90
8095;DHT22;4090;49.270;8.696;2022-09-13T16:51:01;25.50;99.90
8095;DHT22;4090;49.270;8.696;2022-09-13T16:53:45;25.50;99.90
8095;DHT22;4090;49.270;8.696;2022-09-13T16:56:26;25.40;99.90
8095;DHT22;4090;49.270;8.696;2022-09-13T16:59:09;25.40;99.90
8095;DHT22;4090;49.270;8.696;2022-09-13T17:01:51;25.40;99.90
8095;DHT22;4090;49.270;8.696;2022-09-13T17:04:33;25.30;99.90
8095;DHT22;4090;49.270;8.696;2022-09-13T17:07:15;25.30;99.90
8095;DHT22;4090;49.270;8.696;2022-09-13T17:09:59;25.20;99.90
8095;DHT22;4090;49.270;8.696;2022-09-13T17:12:41;25.20;99.90
8095;DHT22;4090;49.270;8.696;2022-09-13T17:15:23;25.10;99.90
8095;DHT22;4090;49.270;8.696;2022-09-13T17:18:05;25.10;99.90
8095;DHT22;4090;49.270;8.696;2022-09-13T17:20:48;25.10;99.90
8095;DHT22;4090;49.270;8.696;2022-09-13T17:23:30;25.00;99.90
8095;DHT22;4090;49.270;8.696;2022-09-13T17:26:13;25.00;99.90
8095;DHT22;4090;49.270;8.696;2022-09-13T17:28:55;25.00;99.90
8095;DHT22;4090;49.270;8.696;2022-09-13T17:31:37;24.90;99.90
8095;DHT22;4090;49.270;8.696;2022-09-13T17:34:19;24.90;99.90
8095;DHT22;4090;49.270;8.696;2022-09-13T17:37:01;24.90;99.90
8095;DHT22;4090;49.270;8.696;2022-09-13T17:39:45;24.90;99.90
8095;DHT22;4090;49.270;8.696;2022-09-13T17:42:29;24.80;99.90
8095;DHT22;4090;49.270;8.696;2022-09-13T17:45:11;24.80;99.90
8095;DHT22;4090;49.270;8.696;2022-09-13T17:47:53;24.80;99.90
8095;DHT22;4090;49.270;8.696;2022-09-13T17:50:36;24.70;99.90
8095;DHT22;4090;49.270;8.696;2022-09-13T17:53:18;24.60;99.90
8095;DHT22;4090;49.270;8.696;2022-09-13T17:56:00;24.60;99.90
8095;DHT22;4090;49.270;8.696;2022-09-13T17:58:43;24.60;99.90
8095;DHT22;4090;49.270;8.696;2022-09-13T18:01:25;24.60;99.90
8095;DHT22;4090;49.270;8.696;2022-09-13T18:04:07;24.50;99.90
8095;DHT22;4090;49.270;8.696;2022-09-13T18:06:50;24.50;99.90
8095;DHT22;4090;49.270;8.696;2022-09-13T18:09:32;24.50;99.90
8095;DHT22;4090;49.270;8.696;2022-09-13T18:12:13;24.40;99.90
8095;DHT22;4090;49.270;8.696;2022-09-13T18:14:57;24.40;99.90
8095;DHT22;4090;49.270;8.696;2022-09-13T18:17:39;24.40;99.90